Time;durP1;ratioP1;P1;durP2;ratioP2;P2;SDS_P1;SDS_P2;PMS_P1;PMS_P2;Temp;Humidity;BMP_temperature;BMP_pressure;BME280_temperature;BME280_humidity;BME280_pressure;Samples;Min_cycle;Max_cycle;Signal;HPM_P1;HPM_P2
2022/08/24 00:01:26;;;;;;;37.03;33.70;;;20.10;99.90;;;;;;5133946;27;20121;-69
2022/08/24 00:03:54;;;;;;;37.92;34.42;;;20.00;99.90;;;;;;5133955;27;20553;-69
2022/08/24 00:06:22;;;;;;;40.75;36.88;;;20.00;99.90;;;;;;5115542;28;20047;-68
2022/08/24 00:08:49;;;;;;;39.28;35.58;;;20.00;99.90;;;;;;5134228;28;20447;-68
2022/08/24 00:11:16;;;;;;;42.10;38.13;;;20.00;99.90;;;;;;5134114;28;20378;-68
2022/08/24 00:13:43;;;;;;;38.38;34.97;;;19.90;99.90;;;;;;5134139;28;20039;-68
2022/08/24 00:16:10;;;;;;;39.97;36.17;;;19.90;99.90;;;;;;5115725;28;20130;-68
2022/08/24 00:18:37;;;;;;;42.50;38.58;;;19.90;99.90;;;;;;5133962;28;20039;-68
2022/08/24 00:21:04;;;;;;;40.10;36.42;;;19.90;99.90;;;;;;5133744;28;20043;-69
2022/08/24 00:23:30;;;;;;;39.55;35.85;;;19.80;99.90;;;;;;5134167;28;20043;-68
2022/08/24 00:25:56;;;;;;;38.90;35.33;;;19.90;99.90;;;;;;5115624;27;20046;-68
2022/08/24 00:28:22;;;;;;;39.50;35.97;;;19.90;99.90;;;;;;5138020;27;20075;-68
2022/08/24 00:30:48;;;;;;;40.72;36.95;;;19.80;99.90;;;;;;5138700;27;20421;-69
2022/08/24 00:33:13;;;;;;;39.97;35.92;;;19.80;99.90;;;;;;5138263;27;20035;-68
2022/08/24 00:35:39;;;;;;;42.60;38.72;;;19.80;99.90;;;;;;5137778;27;20062;-69
2022/08/24 00:38:05;;;;;;;38.35;34.90;;;19.80;99.90;;;;;;5119576;27;20131;-68
2022/08/24 00:40:36;;;;;;;32.80;29.88;;;19.80;99.90;;;;;;5119474;27;20055;-68
2022/08/24 00:43:04;;;;;;;39.90;36.28;;;19.80;99.90;;;;;;5138106;27;20439;-68
2022/08/24 00:45:39;;;;;;;36.78;33.33;;;19.70;99.90;;;;;;5138012;27;20084;-68
2022/08/24 00:48:10;;;;;;;41.22;37.33;;;19.70;99.90;;;;;;5137879;27;20075;-69
2022/08/24 00:50:47;;;;;;;38.50;35.05;;;19.70;99.90;;;;;;5119268;27;20119;-69
2022/08/24 00:53:30;;;;;;;36.75;33.40;;;19.70;99.90;;;;;;5136399;27;20130;-69
2022/08/24 00:56:00;;;;;;;40.55;36.53;;;19.70;99.90;;;;;;5137625;27;20035;-68
2022/08/24 00:58:32;;;;;;;39.75;36.15;;;19.70;99.90;;;;;;5137354;27;20042;-69
2022/08/24 01:01:02;;;;;;;38.30;34.95;;;19.60;99.90;;;;;;5137667;27;20079;-69
2022/08/24 01:03:28;;;;;;;37.55;34.10;;;19.60;99.90;;;;;;5137369;27;20039;-69
2022/08/24 01:05:55;;;;;;;36.78;33.45;;;19.60;99.90;;;;;;5137197;27;20490;-69
2022/08/24 01:08:22;;;;;;;40.13;36.47;;;19.50;99.90;;;;;;5137432;27;20122;-68
2022/08/24 01:10:52;;;;;;;42.03;38.30;;;19.50;99.90;;;;;;5118716;27;20053;-68
2022/08/24 01:13:19;;;;;;;41.03;37.28;;;19.50;99.90;;;;;;5137415;27;20133;-68
2022/08/24 01:15:48;;;;;;;37.07;33.83;;;19.40;99.90;;;;;;5137315;27;20084;-68
2022/08/24 01:21:30;;;;;;;40.95;37.25;;;19.40;99.90;;;;;;5136915;27;20043;-68
2022/08/24 01:23:59;;;;;;;31.13;28.17;;;19.30;99.90;;;;;;5137014;27;20517;-69
2022/08/24 01:26:35;;;;;;;38.05;34.50;;;19.30;99.90;;;;;;5137082;27;20088;-68
2022/08/24 01:29:14;;;;;;;38.78;35.05;;;19.20;99.90;;;;;;5137002;27;20092;-69
2022/08/24 01:31:40;;;;;;;38.03;34.72;;;19.20;99.90;;;;;;5136784;27;20474;-68
2022/08/24 01:34:05;;;;;;;39.55;35.83;;;19.20;99.90;;;;;;5136673;27;20405;-69
2022/08/24 01:37:01;;;;;;;38.25;34.88;;;19.20;99.90;;;;;;5137019;27;20118;-68
2022/08/24 01:39:33;;;;;;;38.22;34.63;;;19.10;99.90;;;;;;5121741;27;20046;-68
2022/08/24 01:42:00;;;;;;;37.85;34.17;;;19.10;99.90;;;;;;5136972;27;20043;-68
2022/08/24 01:44:32;;;;;;;41.42;37.72;;;19.00;99.90;;;;;;5136555;27;20043;-68
2022/08/24 01:47:00;;;;;;;41.65;37.88;;;19.00;99.90;;;;;;5136965;27;20035;-68
2022/08/24 01:49:28;;;;;;;32.25;29.27;;;19.00;99.90;;;;;;5136719;27;20084;-69
2022/08/24 01:51:54;;;;;;;33.80;30.42;;;18.90;99.90;;;;;;5136822;27;20398;-68
2022/08/24 01:54:19;;;;;;;39.63;36.05;;;18.90;99.90;;;;;;5136782;27;20122;-68
2022/08/24 01:56:45;;;;;;;40.90;37.25;;;19.00;99.90;;;;;;5136247;27;20046;-69
2022/08/24 01:59:12;;;;;;;45.47;41.25;;;19.00;99.90;;;;;;5136637;27;20043;-68
2022/08/24 02:01:53;;;;;;;42.25;38.53;;;18.90;99.90;;;;;;5136573;27;20046;-68
2022/08/24 02:04:19;;;;;;;40.40;36.70;;;18.90;99.90;;;;;;5136094;27;20050;-69
2022/08/24 02:06:45;;;;;;;42.65;38.78;;;18.80;99.90;;;;;;5136334;27;20035;-68
2022/08/24 02:09:11;;;;;;;40.33;36.67;;;18.80;99.90;;;;;;5117826;27;20402;-68
2022/08/24 02:11:37;;;;;;;36.63;33.35;;;18.70;99.90;;;;;;5117577;27;20096;-69
2022/08/24 02:14:03;;;;;;;38.50;34.97;;;18.70;99.90;;;;;;5136235;27;20051;-68
2022/08/24 02:16:29;;;;;;;41.15;37.42;;;18.70;99.90;;;;;;5117485;27;20039;-68
2022/08/24 02:18:55;;;;;;;43.08;38.97;;;18.60;99.90;;;;;;5136209;27;20074;-69
2022/08/24 02:21:21;;;;;;;37.95;34.53;;;18.50;99.90;;;;;;5136064;27;20474;-68
2022/08/24 02:23:46;;;;;;;38.55;34.97;;;18.50;99.90;;;;;;5135860;27;20039;-68
2022/08/24 02:26:12;;;;;;;39.92;36.15;;;18.50;99.90;;;;;;5135647;27;20043;-69
2022/08/24 02:28:39;;;;;;;44.72;40.53;;;18.60;99.90;;;;;;5136073;27;20122;-69
2022/08/24 02:31:06;;;;;;;42.33;38.30;;;18.50;99.90;;;;;;5135978;27;20099;-68
2022/08/24 02:33:37;;;;;;;46.78;42.65;;;18.50;99.90;;;;;;5135767;27;20047;-69
2022/08/24 02:36:04;;;;;;;44.83;40.90;;;18.50;99.90;;;;;;5135815;27;20036;-68
2022/08/24 02:38:29;;;;;;;49.85;45.25;;;18.50;99.90;;;;;;5135434;27;20043;-69
2022/08/24 02:40:56;;;;;;;50.58;45.70;;;18.50;99.90;;;;;;5142208;22;20074;-47
2022/08/24 02:43:23;;;;;;;42.42;38.63;;;18.50;99.90;;;;;;5117033;27;20432;-47
2022/08/24 02:45:49;;;;;;;43.17;39.53;;;18.40;99.90;;;;;;5116695;27;20508;-46
2022/08/24 02:48:15;;;;;;;43.53;39.28;;;18.40;99.90;;;;;;5129642;27;20067;-46
2022/08/24 02:50:44;;;;;;;43.53;39.67;;;18.50;99.90;;;;;;5114222;28;20048;-47
2022/08/24 02:53:12;;;;;;;42.50;38.63;;;18.40;99.90;;;;;;5114469;28;20067;-46
2022/08/24 02:55:40;;;;;;;37.65;34.15;;;18.50;99.90;;;;;;5114291;28;20524;-47
2022/08/24 02:58:07;;;;;;;48.25;43.88;;;18.40;99.90;;;;;;5131034;27;20051;-45
2022/08/24 03:00:35;;;;;;;47.60;43.00;;;18.40;99.90;;;;;;5134904;27;20038;-46
2022/08/24 03:03:01;;;;;;;43.05;39.28;;;18.40;99.90;;;;;;5135275;27;20047;-48
2022/08/24 03:05:27;;;;;;;48.85;44.45;;;18.30;99.90;;;;;;5134774;27;20091;-46
2022/08/24 03:07:53;;;;;;;47.22;42.97;;;18.30;99.90;;;;;;5134907;27;20043;-47
2022/08/24 03:10:20;;;;;;;43.70;39.63;;;18.30;99.90;;;;;;5134863;27;20118;-49
2022/08/24 03:12:46;;;;;;;47.70;43.33;;;18.30;99.90;;;;;;5116239;27;20119;-48
2022/08/24 03:15:12;;;;;;;45.50;41.33;;;18.20;99.90;;;;;;5117555;27;20042;-46
2022/08/24 03:17:39;;;;;;;47.28;42.85;;;18.30;99.90;;;;;;5095851;28;20046;-46
2022/08/24 03:20:08;;;;;;;45.08;40.95;;;18.20;99.90;;;;;;5113645;28;20055;-46
2022/08/24 03:22:34;;;;;;;47.95;43.38;;;18.20;99.90;;;;;;5114163;28;20047;-46
2022/08/24 03:24:59;;;;;;;47.10;42.85;;;18.20;99.90;;;;;;5114003;28;20047;-50
2022/08/24 03:27:25;;;;;;;41.38;37.47;;;18.10;99.90;;;;;;5113925;28;20040;-46
2022/08/24 03:29:51;;;;;;;41.38;37.78;;;18.10;99.90;;;;;;5113912;28;20081;-49
2022/08/24 03:32:17;;;;;;;50.95;45.97;;;18.10;99.90;;;;;;5113529;28;20040;-47
2022/08/24 03:34:42;;;;;;;51.67;46.97;;;18.10;99.90;;;;;;5113853;28;20043;-47
2022/08/24 03:37:08;;;;;;;50.25;45.75;;;18.10;99.90;;;;;;5113872;28;20039;-48
2022/08/24 03:39:34;;;;;;;43.67;39.72;;;18.10;99.90;;;;;;5113652;28;20035;-50
2022/08/24 03:41:59;;;;;;;48.28;44.00;;;18.10;99.90;;;;;;5113348;27;20047;-46
2022/08/24 03:44:25;;;;;;;44.63;40.55;;;18.10;99.90;;;;;;5134198;27;20085;-50
2022/08/24 03:46:52;;;;;;;50.85;45.90;;;18.00;99.90;;;;;;5134043;27;20058;-46
2022/08/24 03:49:18;;;;;;;45.50;41.33;;;18.00;99.90;;;;;;5150812;27;20365;-48
2022/08/24 03:51:44;;;;;;;48.70;44.13;;;17.90;99.90;;;;;;5154958;27;20415;-48
2022/08/24 03:54:11;;;;;;;47.65;43.22;;;17.90;99.90;;;;;;5154950;27;20045;-46
2022/08/24 03:56:37;;;;;;;50.97;46.50;;;17.90;99.90;;;;;;5154894;27;20039;-46
2022/08/24 03:59:04;;;;;;;42.80;39.05;;;17.90;99.90;;;;;;5155182;27;20034;-47
2022/08/24 04:01:30;;;;;;;50.17;45.58;;;17.80;99.90;;;;;;5153928;27;20035;-48
2022/08/24 04:03:56;;;;;;;40.33;36.53;;;17.80;99.90;;;;;;5154466;27;20099;-46
2022/08/24 04:06:21;;;;;;;46.13;41.83;;;17.80;99.90;;;;;;5154718;27;20053;-47
2022/08/24 04:08:48;;;;;;;47.13;42.90;;;17.80;99.90;;;;;;5154695;27;20500;-45
2022/08/24 04:11:19;;;;;;;46.55;42.50;;;17.80;99.90;;;;;;5154543;27;20047;-46
2022/08/24 04:13:46;;;;;;;45.95;41.92;;;17.80;99.90;;;;;;5154546;27;20046;-46
2022/08/24 04:16:17;;;;;;;38.53;35.13;;;17.70;99.90;;;;;;5154547;27;20083;-44
2022/08/24 04:18:44;;;;;;;50.08;45.42;;;17.70;99.90;;;;;;5154464;27;20593;-46
2022/08/24 04:21:20;;;;;;;51.92;47.17;;;17.80;99.90;;;;;;5154538;27;20038;-49
2022/08/24 04:23:46;;;;;;;48.25;44.13;;;17.70;99.90;;;;;;5136015;27;20043;-44
2022/08/24 04:26:13;;;;;;;47.83;43.50;;;17.70;99.90;;;;;;5154209;27;20621;-48
2022/08/24 04:28:39;;;;;;;50.92;46.35;;;17.70;99.90;;;;;;5135936;27;20396;-49
2022/08/24 04:31:05;;;;;;;48.67;44.35;;;17.70;99.90;;;;;;5154349;27;20038;-47
2022/08/24 04:33:31;;;;;;;45.60;41.55;;;17.70;99.90;;;;;;5154496;27;20042;-49
2022/08/24 04:35:57;;;;;;;47.90;43.78;;;17.60;99.90;;;;;;5154401;27;20057;-48
2022/08/24 04:38:23;;;;;;;41.80;38.13;;;17.60;99.90;;;;;;5154359;27;20035;-48
2022/08/24 04:40:49;;;;;;;43.20;39.28;;;17.60;99.90;;;;;;5153852;27;20530;-48
2022/08/24 04:43:15;;;;;;;36.25;33.13;;;17.60;99.90;;;;;;5154286;27;20460;-46
2022/08/24 04:45:44;;;;;;;46.65;42.65;;;17.60;99.90;;;;;;5154043;27;20078;-49
2022/08/24 04:48:14;;;;;;;36.90;33.90;;;17.70;99.90;;;;;;5154102;27;20049;-49
2022/08/24 04:50:41;;;;;;;47.38;43.13;;;17.60;99.90;;;;;;5154279;27;20039;-51
2022/08/24 04:53:08;;;;;;;45.90;41.72;;;17.70;99.90;;;;;;5154147;27;20045;-50
2022/08/24 04:55:42;;;;;;;45.90;41.88;;;17.70;99.90;;;;;;5154073;27;20039;-47
2022/08/24 04:58:08;;;;;;;48.15;43.92;;;17.80;99.90;;;;;;5154022;27;20050;-49
2022/08/24 05:00:34;;;;;;;50.47;45.65;;;17.80;99.90;;;;;;5154156;27;20030;-49
2022/08/24 05:02:59;;;;;;;43.13;39.28;;;17.80;99.90;;;;;;5135808;27;20038;-47
2022/08/24 05:05:25;;;;;;;39.88;36.35;;;17.80;99.90;;;;;;5154128;27;20121;-45
2022/08/24 05:07:50;;;;;;;42.47;38.75;;;17.90;99.90;;;;;;5154247;27;20461;-47
2022/08/24 05:10:16;;;;;;;41.60;38.03;;;17.90;99.90;;;;;;5154063;27;20400;-47
2022/08/24 05:12:42;;;;;;;43.65;39.78;;;18.00;99.90;;;;;;5154941;27;20092;-48
2022/08/24 05:15:08;;;;;;;41.88;38.22;;;18.00;99.90;;;;;;5157930;27;20035;-47
2022/08/24 05:17:34;;;;;;;45.90;41.78;;;18.10;99.90;;;;;;5157888;27;20121;-45
2022/08/24 05:19:59;;;;;;;43.22;39.42;;;18.10;99.90;;;;;;5157447;27;20126;-49
2022/08/24 05:22:25;;;;;;;45.25;41.28;;;18.20;99.90;;;;;;5157795;27;20035;-47
2022/08/24 05:24:50;;;;;;;47.00;42.72;;;18.20;99.90;;;;;;5139125;27;20042;-49
2022/08/24 05:27:17;;;;;;;50.60;45.95;;;18.30;99.90;;;;;;5157498;27;20092;-49
2022/08/24 05:29:43;;;;;;;51.08;46.53;;;18.40;99.90;;;;;;5157663;27;20043;-48
2022/08/24 05:32:10;;;;;;;49.53;44.63;;;18.50;99.90;;;;;;5157578;27;20039;-49
2022/08/24 05:34:35;;;;;;;46.35;41.80;;;18.60;99.90;;;;;;5157410;27;20117;-49
2022/08/24 05:37:01;;;;;;;48.97;44.47;;;18.60;99.90;;;;;;5157431;27;20078;-49
2022/08/24 05:39:29;;;;;;;50.42;45.92;;;18.80;99.90;;;;;;5157195;27;20039;-50
2022/08/24 05:41:55;;;;;;;47.70;43.25;;;18.90;99.90;;;;;;5157192;27;20059;-47
2022/08/24 05:44:23;;;;;;;50.03;45.47;;;19.10;99.90;;;;;;5157554;27;20118;-48
2022/08/24 05:46:48;;;;;;;48.03;43.67;;;19.30;99.90;;;;;;5157204;27;20047;-46
2022/08/24 05:49:15;;;;;;;49.35;44.88;;;20.20;99.90;;;;;;5157520;27;20084;-48
2022/08/24 05:51:41;;;;;;;46.33;42.08;;;21.30;99.90;;;;;;5157052;27;20054;-48
2022/08/24 05:54:08;;;;;;;44.55;40.45;;;22.20;99.90;;;;;;5156916;27;20042;-50
2022/08/24 05:56:34;;;;;;;44.15;40.55;;;23.10;99.90;;;;;;5156810;27;20062;-50
2022/08/24 05:59:00;;;;;;;43.58;39.85;;;23.70;99.90;;;;;;5138392;27;20067;-51
2022/08/24 06:01:27;;;;;;;37.95;34.83;;;24.50;99.90;;;;;;5156783;27;20038;-48
2022/08/24 06:03:54;;;;;;;37.03;33.83;;;25.10;99.90;;;;;;5156870;27;20034;-48
2022/08/24 06:06:21;;;;;;;35.22;32.40;;;25.60;99.90;;;;;;5156785;27;20039;-45
2022/08/24 06:08:49;;;;;;;32.60;29.87;;;26.10;99.90;;;;;;5156726;27;20039;-46
2022/08/24 06:11:27;;;;;;;33.53;30.73;;;26.60;99.90;;;;;;5156706;27;20066;-50
2022/08/24 06:13:53;;;;;;;32.70;30.15;;;27.10;99.90;;;;;;5156736;27;20045;-51
2022/08/24 06:16:20;;;;;;;33.25;30.65;;;27.30;99.90;;;;;;5156812;27;20119;-46
2022/08/24 06:18:46;;;;;;;34.60;31.60;;;27.60;99.90;;;;;;5156833;27;20051;-47
2022/08/24 06:21:15;;;;;;;34.13;31.43;;;27.70;99.90;;;;;;5156497;27;20476;-49
2022/08/24 06:23:42;;;;;;;35.88;32.78;;;28.00;99.90;;;;;;5156490;27;20050;-48
2022/08/24 06:28:55;;;;;;;35.97;32.95;;;28.80;99.90;;;;;;5113647;27;19919;-49
2022/08/24 06:31:23;;;;;;;39.10;35.83;;;29.00;99.90;;;;;;5156291;27;20511;-48
2022/08/24 06:33:49;;;;;;;35.90;32.90;;;28.80;99.90;;;;;;5156178;27;20134;-50
2022/08/24 06:36:14;;;;;;;34.90;32.05;;;29.10;99.90;;;;;;5156394;27;20523;-49
2022/08/24 06:38:40;;;;;;;34.45;31.52;;;29.10;99.90;;;;;;5156375;27;20047;-48
2022/08/24 06:41:06;;;;;;;35.17;32.08;;;29.40;99.90;;;;;;5156107;27;20089;-49
2022/08/24 06:43:32;;;;;;;36.15;33.03;;;29.20;99.90;;;;;;5156109;27;20046;-45
2022/08/24 06:45:59;;;;;;;35.40;32.50;;;29.40;99.90;;;;;;5156096;27;20074;-49
2022/08/24 06:48:24;;;;;;;39.57;36.00;;;29.30;99.90;;;;;;5137497;27;20089;-49
2022/08/24 06:50:51;;;;;;;35.65;32.35;;;29.50;99.90;;;;;;5156108;27;20070;-46
2022/08/24 06:53:17;;;;;;;36.92;33.63;;;29.90;99.90;;;;;;5155888;27;20385;-49
2022/08/24 06:55:52;;;;;;;36.72;33.50;;;30.00;99.90;;;;;;5156068;27;20045;-50
2022/08/24 06:58:19;;;;;;;37.25;34.05;;;29.60;99.90;;;;;;5155887;27;20094;-47
2022/08/24 07:00:46;;;;;;;35.67;32.78;;;30.10;99.90;;;;;;5155673;27;20043;-48
2022/08/24 07:03:12;;;;;;;;;;;30.50;99.90;;;;;;5155909;27;20400;-47
2022/08/24 07:05:38;;;;;;;36.03;32.87;;;30.20;99.90;;;;;;5155785;27;19918;-50
2022/08/24 07:08:05;;;;;;;35.28;32.17;;;29.90;99.90;;;;;;5155653;27;20194;-50
2022/08/24 07:10:31;;;;;;;36.65;33.33;;;29.80;99.90;;;;;;5155544;27;20099;-47
2022/08/24 07:12:57;;;;;;;35.60;32.35;;;29.50;99.90;;;;;;5155540;27;20141;-49
2022/08/24 07:15:23;;;;;;;35.17;31.85;;;29.50;99.90;;;;;;5137007;27;20520;-50
2022/08/24 07:17:50;;;;;;;38.33;34.80;;;29.80;99.90;;;;;;5136627;27;20045;-50
2022/08/24 07:20:16;;;;;;;36.20;33.20;;;30.30;99.90;;;;;;5155369;27;20085;-47
2022/08/24 07:22:43;;;;;;;33.47;30.60;;;30.10;99.90;;;;;;5155159;27;20049;-49
2022/08/24 07:25:11;;;;;;;32.25;29.55;;;30.20;99.90;;;;;;5155190;27;20074;-47
2022/08/24 07:27:37;;;;;;;33.05;29.85;;;29.90;99.90;;;;;;5155372;27;20046;-51
2022/08/24 07:30:03;;;;;;;29.73;26.98;;;29.40;99.90;;;;;;5155273;27;20074;-49
2022/08/24 07:32:29;;;;;;;29.83;26.97;;;29.00;99.90;;;;;;5155307;27;20046;-48
2022/08/24 07:34:55;;;;;;;28.27;25.80;;;28.30;99.90;;;;;;5155191;27;20629;-48
2022/08/24 07:37:20;;;;;;;28.55;25.85;;;27.50;99.90;;;;;;5154394;27;20063;-49
2022/08/24 07:39:46;;;;;;;30.00;27.13;;;27.50;99.90;;;;;;5155208;27;20473;-50
2022/08/24 07:42:12;;;;;;;31.05;28.35;;;27.50;99.90;;;;;;5154664;27;20504;-48
2022/08/24 07:44:38;;;;;;;31.42;28.25;;;27.40;99.90;;;;;;5154864;27;20558;-46
2022/08/24 07:47:04;;;;;;;31.50;28.63;;;27.30;99.90;;;;;;5154832;27;20085;-49
2022/08/24 07:49:30;;;;;;;29.15;26.55;;;27.00;99.90;;;;;;5154963;27;20077;-47
2022/08/24 07:51:56;;;;;;;30.33;27.63;;;27.10;99.90;;;;;;5154999;27;20042;-50
2022/08/24 07:54:22;;;;;;;26.60;24.08;;;26.90;99.90;;;;;;5154846;27;20042;-50
2022/08/24 07:56:49;;;;;;;26.20;23.73;;;27.00;99.90;;;;;;5154826;27;20043;-49
2022/08/24 07:59:16;;;;;;;25.38;23.08;;;27.20;99.90;;;;;;5154606;27;20069;-51
2022/08/24 08:01:41;;;;;;;25.63;23.27;;;27.20;99.90;;;;;;5154791;27;20038;-51
2022/08/24 08:04:08;;;;;;;25.42;23.13;;;27.10;99.90;;;;;;5136426;27;20042;-49
2022/08/24 08:06:34;;;;;;;24.05;21.88;;;27.00;99.90;;;;;;5154727;27;20080;-50
2022/08/24 08:09:01;;;;;;;24.60;22.38;;;27.10;99.90;;;;;;5154735;27;20034;-50
2022/08/24 08:11:27;;;;;;;;;;;27.20;99.90;;;;;;5136945;27;20074;-50
2022/08/24 08:13:53;;;;;;;26.27;23.90;;;27.30;99.90;;;;;;5154615;27;19985;-49
2022/08/24 08:16:20;;;;;;;24.48;22.38;;;27.30;99.90;;;;;;5154831;27;20051;-47
2022/08/24 08:18:45;;;;;;;;;;;27.60;99.90;;;;;;5136595;27;20064;-47
2022/08/24 08:24:15;;;;;;;20.83;18.92;;;27.70;99.90;;;;;;5154514;27;20082;-49
2022/08/24 08:26:46;;;;;;;22.10;20.08;;;27.30;99.90;;;;;;5154648;27;20043;-47
2022/08/24 08:29:12;;;;;;;20.50;18.35;;;27.20;99.90;;;;;;5154711;27;20045;-50
2022/08/24 08:31:39;;;;;;;17.85;15.95;;;27.10;99.90;;;;;;5154749;27;20038;-47
2022/08/24 08:34:05;;;;;;;15.10;13.70;;;27.30;99.90;;;;;;5154420;27;20039;-49
2022/08/24 08:36:31;;;;;;;17.00;15.23;;;27.30;99.90;;;;;;5154330;27;20035;-50
2022/08/24 08:38:57;;;;;;;18.30;16.70;;;27.10;99.90;;;;;;5154225;27;20046;-51
2022/08/24 08:41:59;;;;;;;15.95;14.43;;;27.20;99.90;;;;;;5153893;27;20104;-50
2022/08/24 08:44:46;;;;;;;16.58;14.93;;;27.30;99.90;;;;;;5154389;27;20462;-51
2022/08/24 08:47:24;;;;;;;;;;;27.40;99.90;;;;;;5154932;27;20122;-47
2022/08/24 08:50:17;;;;;;;13.85;12.52;;;27.60;99.90;;;;;;5158164;27;20292;-48
2022/08/24 08:52:53;;;;;;;16.52;14.85;;;27.90;99.90;;;;;;5158207;27;20035;-50
2022/08/24 08:55:37;;;;;;;17.00;15.63;;;28.20;99.90;;;;;;5158160;27;20039;-48
2022/08/24 08:58:37;;;;;;;19.05;17.40;;;28.40;99.90;;;;;;5158081;27;20511;-47
2022/08/24 09:01:30;;;;;;;16.95;15.15;;;28.40;99.90;;;;;;5157984;27;20047;-47
2022/08/24 09:04:11;;;;;;;14.18;12.98;;;28.60;99.90;;;;;;5157996;27;20089;-48
2022/08/24 09:07:09;;;;;;;14.73;13.23;;;28.70;99.90;;;;;;5158139;27;20050;-50
2022/08/24 09:10:16;;;;;;;17.00;15.38;;;28.90;99.90;;;;;;5149324;27;20129;-47
2022/08/24 09:13:07;;;;;;;14.70;13.30;;;28.50;99.90;;;;;;5158142;27;20047;-50
2022/08/24 09:15:32;;;;;;;15.45;13.85;;;28.50;99.90;;;;;;5157853;27;20043;-47
2022/08/24 09:18:25;;;;;;;14.38;12.98;;;28.70;99.90;;;;;;5157778;27;20046;-49
2022/08/24 09:21:32;;;;;;;16.08;14.48;;;28.60;99.90;;;;;;5157559;27;20610;-51
2022/08/24 09:24:10;;;;;;;15.95;14.35;;;28.60;99.90;;;;;;5157798;27;20039;-48
2022/08/24 09:26:43;;;;;;;16.60;14.43;;;28.40;99.90;;;;;;5157677;27;20046;-47
2022/08/24 09:29:15;;;;;;;15.93;14.32;;;28.70;99.90;;;;;;5157537;27;20047;-50
2022/08/24 09:31:50;;;;;;;13.13;11.77;;;28.60;99.90;;;;;;5157619;27;20047;-49
2022/08/24 09:34:37;;;;;;;12.90;11.63;;;28.90;99.90;;;;;;5157392;27;20043;-49
2022/08/24 09:37:25;;;;;;;11.57;10.40;;;29.20;99.90;;;;;;5157322;27;20096;-46
2022/08/24 09:39:50;;;;;;;11.45;10.25;;;29.30;99.90;;;;;;5157469;27;20035;-49
2022/08/24 09:42:41;;;;;;;6.70;4.95;;;29.10;99.90;;;;;;5156943;27;20062;-49
2022/08/24 09:45:07;;;;;;;6.90;5.70;;;29.30;99.90;;;;;;5157626;27;20039;-49
2022/08/24 09:48:11;;;;;;;6.50;4.70;;;29.20;98.90;;;;;;5157307;27;20049;-48
2022/08/24 09:50:54;;;;;;;5.75;4.82;;;29.50;99.50;;;;;;5072805;28;20040;-45
2022/08/24 09:53:44;;;;;;;9.80;6.57;;;29.60;99.80;;;;;;5072978;28;20103;-47
2022/08/24 09:56:44;;;;;;;6.35;4.10;;;29.70;98.50;;;;;;5072670;28;20540;-50
2022/08/24 09:59:43;;;;;;;7.00;4.88;;;29.80;99.30;;;;;;5071903;28;20067;-49
2022/08/24 10:02:29;;;;;;;6.13;3.70;;;29.80;98.30;;;;;;5055926;28;20454;-50
2022/08/24 10:05:07;;;;;;;5.47;4.05;;;30.00;99.10;;;;;;5072658;28;20593;-45
2022/08/24 10:08:07;;;;;;;5.82;4.18;;;30.00;99.10;;;;;;5072775;28;20477;-47
2022/08/24 10:10:57;;;;;;;6.57;5.15;;;30.30;98.50;;;;;;5049387;28;20052;-47
2022/08/24 10:13:39;;;;;;;6.60;4.05;;;29.90;97.70;;;;;;5072535;28;20131;-51
2022/08/24 10:16:31;;;;;;;4.97;3.35;;;29.60;97.60;;;;;;5072588;28;20041;-48
2022/08/24 10:19:28;;;;;;;5.13;3.35;;;29.60;97.60;;;;;;5072514;28;20063;-49
2022/08/24 10:22:02;;;;;;;5.72;4.00;;;29.70;98.80;;;;;;4996057;28;20460;-47
2022/08/24 10:25:09;;;;;;;3.35;2.97;;;29.70;98.70;;;;;;5030191;28;20051;-46
2022/08/24 10:27:59;;;;;;;6.75;2.30;;;29.90;98.00;;;;;;5041668;28;20045;-45
2022/08/24 10:30:44;;;;;;;1.85;1.60;;;30.10;98.60;;;;;;5052257;28;20124;-48
2022/08/24 10:33:32;;;;;;;4.10;1.90;;;30.20;97.20;;;;;;5052302;28;20045;-47
2022/08/24 10:36:33;;;;;;;4.25;1.63;;;30.40;97.00;;;;;;5052098;28;20057;-46
2022/08/24 10:41:50;;;;;;;3.45;2.00;;;30.40;97.70;;;;;;5034890;28;20594;-46
2022/08/24 10:44:25;;;;;;;3.50;1.65;;;30.50;97.60;;;;;;5051872;28;20131;-51
2022/08/24 10:46:55;;;;;;;2.70;1.63;;;30.50;96.40;;;;;;5052151;28;20044;-49
2022/08/24 10:49:55;;;;;;;2.55;1.60;;;30.60;96.70;;;;;;5051904;28;20515;-47
2022/08/24 10:52:46;;;;;;;1.80;1.50;;;30.50;96.80;;;;;;5051913;28;20041;-48
2022/08/24 10:55:32;;;;;;;1.83;1.60;;;30.50;96.50;;;;;;5051839;28;20037;-49
2022/08/24 10:58:01;;;;;;;;;;;30.60;96.70;;;;;;5124282;27;20092;-46
2022/08/24 11:00:28;;;;;;;3.22;1.90;;;30.60;96.70;;;;;;5155668;27;19919;-46
2022/08/24 11:03:29;;;;;;;2.38;1.73;;;30.60;96.80;;;;;;5155520;27;20562;-49
2022/08/24 11:05:56;;;;;;;5.97;1.70;;;30.80;97.10;;;;;;5071561;28;20041;-46
2022/08/24 11:08:24;;;;;;;3.95;1.65;;;30.70;96.70;;;;;;5071597;28;20135;-47
2022/08/24 11:11:05;;;;;;;2.65;1.60;;;30.60;95.00;;;;;;5054710;28;20148;-51
2022/08/24 11:13:32;;;;;;;1.20;1.10;;;30.60;95.30;;;;;;5071297;28;20053;-46
2022/08/24 11:16:00;;;;;;;2.10;1.40;;;30.70;95.60;;;;;;5071306;28;20411;-49
2022/08/24 11:18:49;;;;;;;2.00;1.40;;;30.80;94.50;;;;;;5071279;28;20407;-50
2022/08/24 11:21:35;;;;;;;1.40;1.10;;;30.90;96.20;;;;;;5071044;28;20056;-47
2022/08/24 11:24:08;;;;;;;1.50;1.00;;;31.00;95.80;;;;;;5071254;28;20040;-46
2022/08/24 11:26:47;;;;;;;3.33;1.45;;;31.00;95.30;;;;;;5071143;28;20063;-50
2022/08/24 11:29:12;;;;;;;2.17;1.30;;;31.00;94.90;;;;;;5071375;28;20051;-47
2022/08/24 11:31:41;;;;;;;2.00;1.23;;;31.20;94.20;;;;;;5071202;28;20049;-51
2022/08/24 11:34:17;;;;;;;1.17;1.08;;;30.90;93.90;;;;;;5071196;28;20155;-48
2022/08/24 11:36:43;;;;;;;1.20;1.10;;;31.10;94.10;;;;;;5071088;28;20056;-47
2022/08/24 11:39:34;;;;;;;1.45;1.25;;;31.10;94.10;;;;;;5087856;27;20106;-50
2022/08/24 11:42:06;;;;;;;1.55;1.20;;;31.10;94.80;;;;;;5153693;27;20492;-49
2022/08/24 11:44:35;;;;;;;2.42;1.45;;;31.30;95.10;;;;;;5154854;27;20476;-46
2022/08/24 11:47:12;;;;;;;3.42;1.50;;;31.30;93.60;;;;;;5155001;27;20087;-47
2022/08/24 11:49:51;;;;;;;3.70;1.48;;;31.30;93.90;;;;;;5154811;27;20511;-46
2022/08/24 11:52:28;;;;;;;2.47;1.50;;;31.20;93.10;;;;;;5154851;27;20395;-48
2022/08/24 11:55:16;;;;;;;3.92;1.60;;;31.30;94.30;;;;;;5154787;27;20563;-46
2022/08/24 11:58:09;;;;;;;2.60;1.25;;;31.10;93.20;;;;;;5154729;27;20614;-45
2022/08/24 12:01:17;;;;;;;1.83;1.48;;;31.30;94.00;;;;;;5154685;27;20038;-47
2022/08/24 12:04:01;;;;;;;2.38;1.40;;;31.30;92.30;;;;;;5112313;27;20074;-49
2022/08/24 12:06:48;;;;;;;3.05;1.42;;;31.20;93.30;;;;;;5154488;27;20482;-49
2022/08/24 12:09:25;;;;;;;;;;;31.20;92.90;;;;;;5155078;27;20397;-47
2022/08/24 12:12:03;;;;;;;2.08;1.10;;;31.40;93.50;;;;;;5154731;27;19919;-47
2022/08/24 12:14:34;;;;;;;1.63;1.13;;;31.40;93.00;;;;;;5136075;27;20043;-47
2022/08/24 12:17:08;;;;;;;2.60;1.10;;;31.40;91.90;;;;;;5154574;27;20442;-51
2022/08/24 12:19:39;;;;;;;3.42;1.20;;;31.30;92.10;;;;;;5154689;27;20039;-51
2022/08/24 12:22:06;;;;;;;3.33;1.20;;;31.40;91.80;;;;;;5154301;27;20404;-49
2022/08/24 12:24:44;;;;;;;1.73;1.15;;;31.60;91.50;;;;;;5159019;27;20050;-50
2022/08/24 12:27:15;;;;;;;1.30;1.20;;;31.60;92.60;;;;;;5158842;27;20042;-47
2022/08/24 12:30:02;;;;;;;1.92;1.20;;;31.70;91.40;;;;;;5158736;27;20047;-47
2022/08/24 12:32:37;;;;;;;1.42;1.25;;;31.50;91.20;;;;;;5158597;27;20039;-49
2022/08/24 12:35:25;;;;;;;3.38;1.15;;;31.70;91.70;;;;;;5158998;27;20043;-52
2022/08/24 12:38:16;;;;;;;3.90;1.30;;;31.60;91.30;;;;;;5158555;27;20043;-51
2022/08/24 12:40:48;;;;;;;1.80;1.27;;;31.60;91.00;;;;;;5157773;27;20416;-50
2022/08/24 12:43:34;;;;;;;1.00;1.00;;;31.70;90.90;;;;;;5158505;27;20130;-49
2022/08/24 12:46:00;;;;;;;1.90;1.10;;;31.80;91.40;;;;;;5157756;27;20044;-48
2022/08/24 12:48:39;;;;;;;1.60;1.20;;;31.70;90.50;;;;;;5158389;27;20081;-45
2022/08/24 12:51:42;;;;;;;2.40;1.35;;;31.90;90.70;;;;;;5158181;27;20067;-45
2022/08/24 12:54:31;;;;;;;3.22;1.40;;;31.90;90.70;;;;;;5158322;27;20046;-46
2022/08/24 12:57:24;;;;;;;2.30;1.20;;;32.00;91.20;;;;;;5158372;27;20046;-47
2022/08/24 12:59:55;;;;;;;1.23;1.13;;;32.00;90.70;;;;;;5158331;27;20400;-46
2022/08/24 13:02:20;;;;;;;1.85;1.70;;;32.00;89.40;;;;;;5158114;27;20054;-46
2022/08/24 13:04:49;;;;;;;3.00;1.40;;;32.00;90.30;;;;;;5158040;27;20246;-47
2022/08/24 13:07:17;;;;;;;1.63;1.52;;;32.10;90.50;;;;;;5157944;27;20157;-46
2022/08/24 13:10:12;;;;;;;2.53;1.60;;;32.10;89.50;;;;;;5157782;27;20087;-46